createdAt,value
2022-11-22T00:07:29.811Z,-0.27
2022-11-22T00:17:35.994Z,-0.22
2022-11-22T00:27:42.191Z,-0.23
2022-11-22T00:37:47.818Z,-0.22
2022-11-22T00:47:53.596Z,-0.36
2022-11-22T00:57:59.174Z,-0.44
2022-11-22T01:08:04.911Z,-0.33
2022-11-22T01:18:10.444Z,-0.25
2022-11-22T01:28:16.179Z,-0.22
2022-11-22T01:38:21.832Z,-0.26
2022-11-22T01:48:38.727Z,-0.15
2022-11-22T01:58:48.823Z,-0.19
2022-11-22T02:09:00.472Z,-0.28
2022-11-22T02:19:06.897Z,-0.48
2022-11-22T02:29:12.929Z,-0.58
2022-11-22T02:39:22.865Z,-0.60
2022-11-22T02:49:28.725Z,-0.57
2022-11-22T02:59:34.625Z,-0.55
2022-11-22T03:09:40.442Z,-0.51
2022-11-22T03:19:46.146Z,-0.44
2022-11-22T03:29:51.951Z,-0.46
2022-11-22T03:39:57.500Z,-0.63
2022-11-22T03:50:03.131Z,-0.77
2022-11-22T04:00:11.408Z,-0.87
2022-11-22T04:10:22.062Z,-0.84
2022-11-22T04:20:47.100Z,-0.81
2022-11-22T04:31:10.859Z,-0.77
2022-11-22T04:41:16.396Z,-0.72
2022-11-22T04:51:39.392Z,-0.70
2022-11-22T05:01:44.981Z,-0.72
2022-11-22T05:11:50.644Z,-0.68
2022-11-22T05:21:56.219Z,-0.64
2022-11-22T05:32:01.787Z,-0.61
2022-11-22T05:42:07.797Z,-0.60
2022-11-22T05:52:13.737Z,-0.61
2022-11-22T06:02:19.489Z,-0.57
2022-11-22T06:12:25.174Z,-0.50
2022-11-22T06:22:30.746Z,-0.45
2022-11-22T06:32:37.093Z,-0.39
2022-11-22T06:42:43.009Z,-0.35
2022-11-22T06:52:54.545Z,-0.27
2022-11-22T07:03:00.187Z,-0.18
2022-11-22T07:13:05.794Z,-0.14
2022-11-22T07:23:12.585Z,-0.10
2022-11-22T07:33:18.387Z,-0.09
2022-11-22T07:43:23.947Z,-0.00
2022-11-22T07:53:30.027Z,0.07
2022-11-22T08:03:35.732Z,0.09
2022-11-22T08:13:42.520Z,0.19
2022-11-22T08:23:49.588Z,0.25
2022-11-22T08:33:54.760Z,0.24
2022-11-22T08:44:00.320Z,0.32
2022-11-22T08:54:06.148Z,0.51
2022-11-22T09:04:11.857Z,0.62
2022-11-22T09:14:17.492Z,0.58
2022-11-22T09:24:23.114Z,0.50
2022-11-22T09:34:28.711Z,0.59
2022-11-22T09:44:46.307Z,0.73
2022-11-22T09:54:56.716Z,0.87
2022-11-22T10:05:04.876Z,1.06
2022-11-22T10:15:20.918Z,1.36
2022-11-22T10:25:35.713Z,1.42
2022-11-22T10:36:06.355Z,1.35
2022-11-22T10:46:20.101Z,1.37
2022-11-22T10:56:31.462Z,1.37
2022-11-22T11:07:10.470Z,1.39
2022-11-22T11:17:08.140Z,1.54
2022-11-22T11:27:14.080Z,1.55
2022-11-22T11:37:27.938Z,1.52
2022-11-22T11:47:37.620Z,1.48
2022-11-22T11:57:46.073Z,1.58
2022-11-22T12:07:51.695Z,1.64
2022-11-22T12:18:05.690Z,1.65
2022-11-22T12:28:21.631Z,1.58
2022-11-22T12:38:32.756Z,1.44
2022-11-22T12:48:48.960Z,1.50
2022-11-22T12:59:02.541Z,1.52
2022-11-22T13:09:12.721Z,1.33
2022-11-22T13:19:21.068Z,1.23
2022-11-22T13:29:29.136Z,1.08
2022-11-22T13:39:37.800Z,1.00
2022-11-22T13:49:48.675Z,0.94
2022-11-22T14:00:25.765Z,0.88
2022-11-22T14:10:35.798Z,0.70
2022-11-22T14:20:55.320Z,0.60
2022-11-22T14:31:01.231Z,0.49
2022-11-22T14:41:42.093Z,0.43
2022-11-22T14:51:53.089Z,0.34
2022-11-22T15:02:20.339Z,0.29
2022-11-22T15:12:56.766Z,0.20
2022-11-22T16:06:05.813Z,-0.02
2022-11-22T16:15:37.207Z,-0.12
2022-11-22T16:25:45.245Z,-0.16
2022-11-22T16:35:55.367Z,-0.15
2022-11-22T16:46:01.089Z,-0.15
2022-11-22T16:56:07.594Z,-0.12
2022-11-22T17:06:18.685Z,-0.10
2022-11-22T17:16:24.503Z,-0.13
2022-11-22T17:26:32.641Z,-0.12
2022-11-22T17:36:39.059Z,-0.11
2022-11-22T17:46:45.151Z,-0.10
2022-11-22T17:56:50.747Z,-0.13
2022-11-22T18:06:56.401Z,-0.15
2022-11-22T18:17:02.539Z,-0.11
2022-11-22T18:27:08.234Z,-0.08
2022-11-22T18:37:13.841Z,-0.05
2022-11-22T18:47:19.607Z,-0.03
2022-11-22T18:57:25.280Z,0.02
2022-11-22T19:07:31.053Z,0.04
2022-11-22T19:17:39.053Z,0.06
2022-11-22T19:27:47.867Z,0.09
2022-11-22T19:37:53.484Z,0.13
2022-11-22T19:47:59.615Z,0.15
2022-11-22T19:58:05.975Z,0.18
2022-11-22T20:08:11.691Z,0.23
2022-11-22T20:18:17.316Z,0.25
2022-11-22T20:28:23.027Z,0.26
2022-11-22T20:38:28.778Z,0.25
2022-11-22T20:48:35.896Z,0.22
2022-11-22T20:58:42.195Z,0.22
2022-11-22T21:08:48.097Z,0.23
2022-11-22T21:18:54.941Z,0.25
2022-11-22T21:28:59.571Z,0.27
2022-11-22T21:39:05.283Z,0.28
2022-11-22T21:49:11.002Z,0.30
2022-11-22T21:59:17.709Z,0.34
2022-11-22T22:09:23.343Z,0.40
2022-11-22T22:19:29.265Z,0.44
2022-11-22T22:29:35.328Z,0.46
2022-11-22T22:39:41.310Z,0.47
2022-11-22T22:49:46.968Z,0.49
2022-11-22T22:59:53.092Z,0.48
2022-11-22T23:09:58.711Z,0.47
2022-11-22T23:20:04.578Z,0.46
2022-11-22T23:30:11.904Z,0.45
2022-11-22T23:40:18.121Z,0.45
2022-11-22T23:50:23.735Z,0.42
